This is the latest recevied weather packets stored in our database for station/object OK1JIL-13. If no packets are shown the sender has not sent any weather packets the latest 10 day(s).
| Time | Temp. | Humidity | Pressure | Rain* | Wind** | Luminosity | Snow |
|---|---|---|---|---|---|---|---|
| 1777599797 | 8.33° C | 54% | 1029 hPa | - | - | - | - |
| 1777599197 | 8.33° C | 53% | 1029 hPa | - | - | - | - |
| 1777598597 | 8.33° C | 53% | 1029 hPa | - | - | - | - |
| 1777597997 | 7.78° C | 55% | 1028.9 hPa | - | - | - | - |
| 1777597397 | 8.33° C | 52% | 1029 hPa | - | - | - | - |
| 1777596797 | 9.44° C | 50% | 1028.9 hPa | - | - | - | - |
| 1777596197 | 10° C | 48% | 1028.9 hPa | - | - | - | - |
| 1777595597 | 9.44° C | 48% | 1029 hPa | - | - | - | - |
| 1777594997 | 9.44° C | 49% | 1029 hPa | - | - | - | - |
| 1777594397 | 9.44° C | 49% | 1029.1 hPa | - | - | - | - |
| 1777593797 | 10.56° C | 45% | 1029.1 hPa | - | - | - | - |
| 1777593197 | 10.56° C | 45% | 1029.2 hPa | - | - | - | - |
| 1777592597 | 10° C | 46% | 1029.2 hPa | - | - | - | - |
| 1777591997 | 9.44° C | 48% | 1029.3 hPa | - | - | - | - |
| 1777591397 | 8.89° C | 49% | 1029.3 hPa | - | - | - | - |
| 1777590797 | 8.89° C | 49% | 1029.3 hPa | - | - | - | - |
| 1777590197 | 8.89° C | 50% | 1029.4 hPa | - | - | - | - |
| 1777589597 | 9.44° C | 48% | 1029.2 hPa | - | - | - | - |
| 1777588997 | 8.89° C | 48% | 1029.3 hPa | - | - | - | - |
| 1777588397 | 8.33° C | 50% | 1029.5 hPa | - | - | - | - |
| 1777587797 | 8.33° C | 50% | 1029.4 hPa | - | - | - | - |
| 1777587197 | 7.78° C | 49% | 1029.4 hPa | - | - | - | - |
| 1777586597 | 9.44° C | 45% | 1029.4 hPa | - | - | - | - |
| 1777585997 | 10° C | 43% | 1029.3 hPa | - | - | - | - |
| 1777585397 | 10° C | 42% | 1029.3 hPa | - | - | - | - |
* Rain since midnight (hover to see other rain measurements)
** Current wind speed in m/s (hover to see current wind gust speed)